createdAt,value
2023-03-06T00:01:46.819Z,9.40
2023-03-06T00:06:54.850Z,9.40
2023-03-06T00:12:02.254Z,7.10
2023-03-06T00:17:09.650Z,7.50
2023-03-06T00:22:17.983Z,8.20
2023-03-06T00:27:26.690Z,6.70
2023-03-06T00:32:34.406Z,8.00
2023-03-06T00:37:42.665Z,7.70
2023-03-06T00:42:51.236Z,10.50
2023-03-06T00:47:59.777Z,9.10
2023-03-06T00:53:07.296Z,8.10
2023-03-06T00:58:14.656Z,7.20
2023-03-06T01:03:22.497Z,10.20
2023-03-06T01:08:31.054Z,9.90
2023-03-06T01:13:38.709Z,6.50
2023-03-06T01:18:47.353Z,11.60
2023-03-06T01:23:55.251Z,6.40
2023-03-06T01:29:04.590Z,9.50
2023-03-06T01:34:11.970Z,9.80
2023-03-06T01:39:19.912Z,9.50
2023-03-06T01:44:27.725Z,8.90
2023-03-06T01:49:39.471Z,11.30
2023-03-06T01:54:50.393Z,8.20
2023-03-06T02:00:04.998Z,9.10
2023-03-06T02:05:21.227Z,10.70
2023-03-06T02:10:29.088Z,9.10
2023-03-06T02:15:36.970Z,9.80
2023-03-06T02:20:52.868Z,10.10
2023-03-06T02:26:01.872Z,8.20
2023-03-06T02:31:10.985Z,8.20
2023-03-06T02:36:19.750Z,9.60
2023-03-06T02:41:27.663Z,9.10
2023-03-06T02:46:35.767Z,12.10
2023-03-06T02:51:43.254Z,11.30
2023-03-06T02:56:50.785Z,12.30
2023-03-06T03:01:58.560Z,10.50
2023-03-06T03:07:06.396Z,12.60
2023-03-06T03:12:15.412Z,9.40
2023-03-06T03:17:24.331Z,8.70
2023-03-06T03:22:32.145Z,11.20
2023-03-06T03:27:39.757Z,9.70
2023-03-06T03:32:48.027Z,8.50
2023-03-06T03:37:55.807Z,10.80
2023-03-06T03:43:03.858Z,14.60
2023-03-06T03:48:11.885Z,10.30
2023-03-06T03:53:19.728Z,7.30
2023-03-06T03:58:28.052Z,10.80
2023-03-06T04:03:36.007Z,11.00
2023-03-06T04:08:45.499Z,12.50
2023-03-06T04:13:53.032Z,8.10
2023-03-06T04:19:00.797Z,10.30
2023-03-06T04:24:10.164Z,6.50
2023-03-06T04:29:17.705Z,8.80
2023-03-06T04:34:25.240Z,11.60
2023-03-06T04:39:33.244Z,11.10
2023-03-06T04:44:42.014Z,12.20
2023-03-06T04:49:49.844Z,9.30
2023-03-06T04:54:57.547Z,13.20
2023-03-06T05:00:06.748Z,11.80
2023-03-06T05:05:15.969Z,9.50
2023-03-06T05:10:24.332Z,11.50
2023-03-06T05:15:32.265Z,12.00
2023-03-06T05:20:39.886Z,9.70
2023-03-06T05:25:47.432Z,9.60
2023-03-06T05:30:55.252Z,10.60
2023-03-06T05:36:02.736Z,8.80
2023-03-06T05:41:12.512Z,9.20
2023-03-06T05:46:20.114Z,15.40
2023-03-06T05:51:28.413Z,11.20
2023-03-06T05:56:35.875Z,10.90
2023-03-06T06:01:43.176Z,11.90
2023-03-06T06:06:52.405Z,7.70
2023-03-06T06:12:01.817Z,7.90
2023-03-06T06:17:09.790Z,11.40
2023-03-06T06:22:17.269Z,9.50
2023-03-06T06:27:24.638Z,9.20
2023-03-06T06:32:32.344Z,8.90
2023-03-06T06:37:39.983Z,9.90
2023-03-06T06:42:48.345Z,9.70
2023-03-06T06:47:56.018Z,9.80
2023-03-06T06:53:03.990Z,7.40
2023-03-06T06:58:11.695Z,12.30
2023-03-06T07:03:19.435Z,12.90
2023-03-06T07:08:30.106Z,9.00
2023-03-06T07:13:38.467Z,9.30
2023-03-06T07:18:46.797Z,7.80
2023-03-06T07:23:54.791Z,9.00
2023-03-06T07:29:09.374Z,10.10
2023-03-06T07:34:21.850Z,7.80
2023-03-06T07:39:33.999Z,10.60
2023-03-06T07:44:45.147Z,10.70
2023-03-06T07:49:58.180Z,6.90
2023-03-06T07:55:07.278Z,10.70
2023-03-06T08:00:17.908Z,6.30
2023-03-06T08:05:26.287Z,7.20
2023-03-06T08:10:34.603Z,7.20
2023-03-06T08:15:49.509Z,12.50
2023-03-06T08:21:06.282Z,8.20
2023-03-06T08:26:17.977Z,11.60
2023-03-06T08:31:37.364Z,6.90
2023-03-06T08:36:45.933Z,11.80
2023-03-06T08:41:54.675Z,8.90
2023-03-06T08:47:02.353Z,6.90
2023-03-06T08:52:11.562Z,4.90
2023-03-06T08:57:19.097Z,6.20
2023-03-06T09:02:26.469Z,7.40
2023-03-06T09:07:34.790Z,4.90
2023-03-06T09:12:50.601Z,10.60
2023-03-06T09:18:00.549Z,7.80
2023-03-06T09:23:08.134Z,8.80
2023-03-06T09:28:18.475Z,5.40
2023-03-06T09:33:27.086Z,9.10
2023-03-06T09:38:35.735Z,9.30
2023-03-06T09:43:46.861Z,6.10
2023-03-06T09:49:10.843Z,3.40
2023-03-06T09:54:23.880Z,8.20
2023-03-06T09:59:33.893Z,5.20
2023-03-06T10:04:45.698Z,5.70
2023-03-06T10:09:59.922Z,5.50
2023-03-06T10:15:19.683Z,6.60
2023-03-06T10:20:31.179Z,4.90
2023-03-06T10:25:45.505Z,3.90
2023-03-06T10:31:05.559Z,4.30
2023-03-06T10:36:16.822Z,4.10
2023-03-06T10:41:31.668Z,4.90
2023-03-06T10:46:42.824Z,2.50
2023-03-06T10:52:00.844Z,3.20
2023-03-06T10:57:31.414Z,7.90
2023-03-06T11:02:41.429Z,4.00
2023-03-06T11:07:59.844Z,4.00
2023-03-06T11:13:23.738Z,4.50
2023-03-06T11:18:36.620Z,5.80
2023-03-06T11:23:48.923Z,4.60
2023-03-06T11:29:18.868Z,3.90
2023-03-06T11:34:40.837Z,2.10
2023-03-06T11:39:55.489Z,2.20
2023-03-06T11:45:20.641Z,0.40
2023-03-06T11:50:34.028Z,3.60
2023-03-06T11:55:56.874Z,3.60
2023-03-06T12:01:11.102Z,2.00
2023-03-06T12:06:33.693Z,2.20
2023-03-06T12:11:50.331Z,3.90
2023-03-06T12:17:10.122Z,4.80
2023-03-06T12:22:34.050Z,2.30
2023-03-06T12:27:51.549Z,2.70
2023-03-06T12:33:11.979Z,3.30
2023-03-06T12:38:50.427Z,3.50
2023-03-06T12:44:19.331Z,3.60
2023-03-06T12:49:32.922Z,4.00
2023-03-06T12:54:44.135Z,6.70
2023-03-06T12:59:53.454Z,3.40
2023-03-06T13:10:37.899Z,2.80
2023-03-06T13:15:48.156Z,4.90
2023-03-06T13:20:57.614Z,3.30
2023-03-06T13:26:07.470Z,2.20
2023-03-06T13:31:26.352Z,2.60
2023-03-06T13:36:39.835Z,2.90
2023-03-06T13:42:01.451Z,1.30
2023-03-06T13:47:22.238Z,2.20
2023-03-06T13:52:40.095Z,2.80
2023-03-06T13:58:03.251Z,4.60
2023-03-06T14:03:52.709Z,2.60
2023-03-06T14:09:00.576Z,1.70
2023-03-06T14:14:14.170Z,5.60
2023-03-06T14:19:23.071Z,2.60
2023-03-06T14:24:40.062Z,3.10
2023-03-06T14:29:49.135Z,3.10
2023-03-06T14:34:57.876Z,5.10
2023-03-06T14:40:11.359Z,3.60
2023-03-06T14:45:21.688Z,3.40
2023-03-06T14:50:32.815Z,3.40
2023-03-06T14:55:48.484Z,5.30
2023-03-06T15:00:59.372Z,5.00
2023-03-06T15:06:10.810Z,5.20
2023-03-06T15:11:19.120Z,3.00
2023-03-06T15:16:32.123Z,4.10
2023-03-06T15:21:42.689Z,4.40
2023-03-06T15:26:57.437Z,7.30
2023-03-06T15:32:34.788Z,5.80
2023-03-06T15:37:43.587Z,4.30
2023-03-06T15:42:52.612Z,3.90
2023-03-06T15:48:00.811Z,6.00
2023-03-06T15:53:09.105Z,5.30
2023-03-06T15:58:25.787Z,3.80
2023-03-06T16:03:33.827Z,6.10
2023-03-06T16:08:42.050Z,4.20
2023-03-06T16:13:50.695Z,7.50
2023-03-06T16:18:59.039Z,7.70
2023-03-06T16:24:08.227Z,6.80
2023-03-06T16:29:19.238Z,11.00
2023-03-06T16:34:27.755Z,6.50
2023-03-06T16:39:36.132Z,6.90
2023-03-06T16:44:44.330Z,8.30
2023-03-06T16:49:58.217Z,9.20
2023-03-06T16:55:07.275Z,8.30
2023-03-06T17:00:19.001Z,8.90
2023-03-06T17:05:27.136Z,8.80
2023-03-06T17:10:35.779Z,6.60
2023-03-06T17:15:57.155Z,5.80
2023-03-06T17:21:05.281Z,7.10
2023-03-06T17:26:16.052Z,8.20
2023-03-06T17:31:25.837Z,23.30
2023-03-06T17:36:34.549Z,47.00
2023-03-06T17:41:46.186Z,24.50
2023-03-06T17:46:54.354Z,16.30
2023-03-06T17:52:04.878Z,16.20
2023-03-06T17:57:12.890Z,10.80
2023-03-06T18:02:21.084Z,12.80
2023-03-06T18:07:29.842Z,15.20
2023-03-06T18:12:38.079Z,20.30
2023-03-06T18:17:47.193Z,13.60
2023-03-06T18:22:56.027Z,15.40
2023-03-06T18:28:06.544Z,14.00
2023-03-06T18:33:15.517Z,15.40
2023-03-06T18:38:23.739Z,19.20
2023-03-06T18:43:32.070Z,20.70
2023-03-06T18:48:40.782Z,20.50
2023-03-06T18:53:49.238Z,20.70
2023-03-06T18:58:58.385Z,18.60
2023-03-06T19:04:07.363Z,22.50
2023-03-06T19:09:15.753Z,22.50
2023-03-06T19:14:24.020Z,23.00
2023-03-06T19:19:32.491Z,22.60
2023-03-06T19:24:41.643Z,18.60
2023-03-06T19:29:48.974Z,21.40
2023-03-06T19:35:00.124Z,20.30
2023-03-06T19:40:10.600Z,22.30
2023-03-06T19:45:18.059Z,26.40
2023-03-06T19:50:30.023Z,30.10
2023-03-06T19:55:39.243Z,29.90
2023-03-06T20:00:47.660Z,30.10
2023-03-06T20:05:54.917Z,28.40
2023-03-06T20:11:02.356Z,28.50
2023-03-06T20:16:11.374Z,30.30
2023-03-06T20:21:19.968Z,28.70
2023-03-06T20:26:29.735Z,26.00
2023-03-06T20:31:38.277Z,25.10
2023-03-06T20:36:46.468Z,32.10
2023-03-06T20:41:55.237Z,27.20
2023-03-06T20:47:03.690Z,31.90
2023-03-06T20:52:12.741Z,27.90
2023-03-06T20:57:21.152Z,32.10
2023-03-06T21:02:29.362Z,29.10
2023-03-06T21:07:37.608Z,31.50
2023-03-06T21:12:45.861Z,37.60
2023-03-06T21:17:53.989Z,27.50
2023-03-06T21:23:03.741Z,30.20
2023-03-06T21:28:12.079Z,32.70
2023-03-06T21:33:20.953Z,32.50
2023-03-06T21:38:29.122Z,27.40
2023-03-06T21:43:36.497Z,32.20
2023-03-06T21:48:47.763Z,25.00
2023-03-06T21:53:56.300Z,27.90
2023-03-06T21:59:03.885Z,25.40
2023-03-06T22:04:11.250Z,30.60
2023-03-06T22:09:20.410Z,28.40
2023-03-06T22:14:28.677Z,27.50
2023-03-06T22:19:37.273Z,32.10
2023-03-06T22:24:45.403Z,30.00
2023-03-06T22:29:54.699Z,24.90
2023-03-06T22:35:03.284Z,30.40
2023-03-06T22:40:13.760Z,31.30
2023-03-06T22:45:22.818Z,32.00
2023-03-06T22:50:30.857Z,29.20
2023-03-06T22:55:40.562Z,28.60
2023-03-06T23:00:49.215Z,30.50
2023-03-06T23:05:57.567Z,24.60
2023-03-06T23:11:09.282Z,28.80
2023-03-06T23:16:35.615Z,25.40
2023-03-06T23:22:01.632Z,27.30
2023-03-06T23:27:31.612Z,25.00
2023-03-06T23:32:40.334Z,26.90
2023-03-06T23:37:47.901Z,25.50
2023-03-06T23:42:56.917Z,22.90
2023-03-06T23:48:04.325Z,22.20
2023-03-06T23:53:11.889Z,23.00
2023-03-06T23:58:21.252Z,27.20
